»·PEaware :: AAL2696 KPDX-KGEG

AAL2696 :: KPDX-KGEG

FLIGHT INFORMATION

Flight Status: Arrived
Operator:
American Airlines
More flights by this operator :: More flights under this callsign
Pilot: Brett L. (10300)
Aircraft: AIRBUS A321
(A321)
More flights by this aircraft type
Origin: KPDX Portland Intl
United States
Destination: KGEG Spokane Intl
United States
More flights between these airports :: More routes between these airports
Route: +PTLD1 BTG PAPPS ZOOMR ZOOMR1
File this flight plan on PilotEdge
Remarks: PBN / A1B1C1D1O1S1 DOF / 170813 REG / N321SB OPR / AAL RMK / TCAS
Altitude:
(Current/Filed)
25,000ft
Speed:
(Current/Filed)
425kts
Departed: 13-Aug-17 07:27 AM
Arrived: 13-Aug-17 08:28 AM
Distance/Time
Traveled:
242nm/1:01
Distance/Time
To Go:
Arrived

Flight Plot

Page will automatically refresh every two minutes.

Flight plan parsing failed; only flown route is shown


Map Options




Map Legend


Flown Route
Filed Route
Departure Airport
Arrival Airport
Navaid (VOR, NDB)
Fix

Horizontal Profiles

Position Reports

Time Latitude Longitude Heading Altitude Ground
Speed
13-Aug-17 07:16 45.587985 -122.594801 28 29ft 0kts
13-Aug-17 07:17 45.587985 -122.594801 28 29ft 0kts
13-Aug-17 07:18 45.587985 -122.594801 28 29ft 0kts
13-Aug-17 07:19 45.587988 -122.594798 28 29ft 0kts
13-Aug-17 07:20 45.587991 -122.594796 28 29ft 0kts
13-Aug-17 07:21 45.588041 -122.594756 28 29ft 6kts
13-Aug-17 07:22 45.588100 -122.594710 28 29ft 0kts
13-Aug-17 07:23 45.588103 -122.594707 28 29ft 0kts
13-Aug-17 07:24 45.588105 -122.594705 28 29ft 0kts
13-Aug-17 07:25 45.587629 -122.595083 28 29ft 2kts
13-Aug-17 07:26 45.587691 -122.595544 215 29ft 1kts
13-Aug-17 07:27 45.587352 -122.595944 230 29ft 8kts
13-Aug-17 07:28 45.584158 -122.589894 116 29ft 16kts
13-Aug-17 07:29 45.581393 -122.583548 196 29ft 6kts
13-Aug-17 07:30 45.581950 -122.587532 298 29ft 49kts
13-Aug-17 07:31 45.608688 -122.654628 297 1475ft 285kts
13-Aug-17 07:32 45.643488 -122.746520 296 5045ft 255kts
13-Aug-17 07:33 45.695053 -122.810500 355 8648ft 279kts
13-Aug-17 07:34 45.747116 -122.732147 86 12256ft 317kts
13-Aug-17 07:36 45.747440 -122.591812 71 15798ft 396kts
13-Aug-17 07:37 45.788579 -122.438117 67 18830ft 425kts
13-Aug-17 07:38 45.832238 -122.274236 67 21845ft 464kts
13-Aug-17 07:39 45.879972 -122.092998 68 23084ft 501kts
13-Aug-17 07:40 45.929253 -121.904349 68 23065ft 507kts
13-Aug-17 07:41 45.978501 -121.714291 68 23050ft 508kts
13-Aug-17 07:42 46.027752 -121.522661 69 23035ft 513kts
13-Aug-17 07:43 46.076996 -121.329425 69 23028ft 516kts
13-Aug-17 07:44 46.126053 -121.135298 69 23022ft 516kts
13-Aug-17 07:45 46.174987 -120.939999 69 23009ft 517kts
13-Aug-17 07:46 46.223453 -120.744887 70 23001ft 517kts
13-Aug-17 07:47 46.271772 -120.548673 70 22993ft 517kts
13-Aug-17 07:48 46.319603 -120.352731 70 22986ft 517kts
13-Aug-17 07:49 46.367102 -120.156438 70 22981ft 517kts
13-Aug-17 07:50 46.414432 -119.959083 71 22982ft 517kts
13-Aug-17 07:51 46.487702 -119.784486 43 22985ft 511kts
13-Aug-17 07:52 46.584723 -119.636037 45 22979ft 504kts
13-Aug-17 07:53 46.680925 -119.487448 45 22968ft 503kts
13-Aug-17 07:54 46.775158 -119.341154 45 22946ft 483kts
13-Aug-17 07:55 46.866444 -119.198705 45 21529ft 474kts
13-Aug-17 07:56 46.955104 -119.059612 45 20025ft 458kts
13-Aug-17 07:57 47.040419 -118.925085 45 18526ft 445kts
13-Aug-17 07:58 47.123615 -118.793247 45 17022ft 433kts
13-Aug-17 07:59 47.195160 -118.679348 46 15695ft 424kts
13-Aug-17 08:00 47.274062 -118.553175 46 14194ft 415kts
13-Aug-17 08:01 47.350892 -118.429727 47 13043ft 399kts
13-Aug-17 08:02 47.423219 -118.306114 60 13001ft 399kts
13-Aug-17 08:03 47.458380 -118.150607 74 11703ft 395kts
13-Aug-17 08:04 47.488667 -118.003261 75 9766ft 343kts
13-Aug-17 08:05 47.526044 -117.885603 48 7753ft 304kts
13-Aug-17 08:06 47.583571 -117.800195 44 5759ft 284kts
13-Aug-17 08:07 47.636669 -117.723221 44 4993ft 247kts
13-Aug-17 08:08 47.685418 -117.653051 44 5001ft 247kts
13-Aug-17 08:09 47.736084 -117.580959 44 4308ft 240kts
13-Aug-17 08:10 47.780662 -117.517104 44 4301ft 215kts
13-Aug-17 08:11 47.812982 -117.446757 96 4301ft 215kts
13-Aug-17 08:12 47.781982 -117.372138 136 4312ft 206kts
13-Aug-17 08:13 47.728615 -117.375373 201 4292ft 197kts
13-Aug-17 08:13 47.696998 -117.420009 223 4019ft 178kts
13-Aug-17 08:15 47.659732 -117.475382 224 3190ft 151kts
13-Aug-17 08:16 47.631412 -117.518119 221 2416ft 136kts
13-Aug-17 08:17 47.593830 -117.568859 216 3901ft 215kts
13-Aug-17 08:18 47.550314 -117.628846 224 3999ft 212kts
13-Aug-17 08:19 47.512019 -117.690356 235 4882ft 219kts
13-Aug-17 08:20 47.533919 -117.776427 312 5006ft 252kts
13-Aug-17 08:21 47.594456 -117.808138 23 5007ft 262kts
13-Aug-17 08:21 47.643114 -117.746546 47 4758ft 287kts
13-Aug-17 08:22 47.696387 -117.663388 47 4029ft 255kts
13-Aug-17 08:23 47.740026 -117.587850 54 3998ft 235kts
13-Aug-17 08:24 47.778684 -117.509516 54 4003ft 235kts
13-Aug-17 08:25 47.794822 -117.427776 120 3929ft 200kts
13-Aug-17 08:26 47.757261 -117.372275 149 3900ft 188kts
13-Aug-17 08:27 47.712192 -117.396326 221 3913ft 184kts
13-Aug-17 08:28 47.678247 -117.447584 223 3685ft 170kts
13-Aug-17 08:29 47.647198 -117.494683 223 2844ft 146kts
13-Aug-17 08:30 47.622665 -117.531048 226 2383ft 57kts
13-Aug-17 08:31 47.617934 -117.541121 291 2383ft 12kts
13-Aug-17 08:32 47.622544 -117.536126 46 2383ft 24kts
13-Aug-17 08:33 47.624886 -117.536487 314 2383ft 0kts

Navigation Log

Ident Type
Flight plan parsing failed, navigation log unavailable